sensor_id;sensor_type;location;lat;lon;timestamp;P1;durP1;ratioP1;P2;durP2;ratioP2
16634;SDS011;8431;52.458;9.998;2024-01-30T00:00:05;12.43;;;11.23;;
16634;SDS011;8431;52.458;9.998;2024-01-30T00:02:34;13.48;;;12.15;;
16634;SDS011;8431;52.458;9.998;2024-01-30T00:05:01;12.65;;;11.38;;
16634;SDS011;8431;52.458;9.998;2024-01-30T00:07:28;12.13;;;10.95;;
16634;SDS011;8431;52.458;9.998;2024-01-30T00:09:56;13.90;;;12.52;;
16634;SDS011;8431;52.458;9.998;2024-01-30T00:12:23;13.13;;;11.57;;
16634;SDS011;8431;52.458;9.998;2024-01-30T00:14:51;12.93;;;11.63;;
16634;SDS011;8431;52.458;9.998;2024-01-30T00:17:18;11.93;;;10.90;;
16634;SDS011;8431;52.458;9.998;2024-01-30T00:19:45;13.15;;;11.85;;
16634;SDS011;8431;52.458;9.998;2024-01-30T00:22:12;12.80;;;11.45;;
16634;SDS011;8431;52.458;9.998;2024-01-30T00:24:39;12.52;;;11.48;;
16634;SDS011;8431;52.458;9.998;2024-01-30T00:27:07;13.18;;;11.98;;
16634;SDS011;8431;52.458;9.998;2024-01-30T00:29:34;13.52;;;12.23;;
16634;SDS011;8431;52.458;9.998;2024-01-30T00:32:01;12.63;;;11.50;;
16634;SDS011;8431;52.458;9.998;2024-01-30T00:34:28;13.40;;;12.00;;
16634;SDS011;8431;52.458;9.998;2024-01-30T00:36:54;11.82;;;10.73;;
16634;SDS011;8431;52.458;9.998;2024-01-30T00:39:21;13.00;;;10.60;;
16634;SDS011;8431;52.458;9.998;2024-01-30T00:41:48;12.68;;;11.13;;
16634;SDS011;8431;52.458;9.998;2024-01-30T00:44:16;11.90;;;10.90;;
16634;SDS011;8431;52.458;9.998;2024-01-30T00:46:43;12.48;;;11.43;;
16634;SDS011;8431;52.458;9.998;2024-01-30T00:49:10;12.38;;;11.23;;
16634;SDS011;8431;52.458;9.998;2024-01-30T00:51:37;11.38;;;10.48;;
16634;SDS011;8431;52.458;9.998;2024-01-30T00:54:04;11.68;;;10.57;;
16634;SDS011;8431;52.458;9.998;2024-01-30T00:56:31;12.77;;;11.48;;
16634;SDS011;8431;52.458;9.998;2024-01-30T00:58:58;12.30;;;11.13;;
16634;SDS011;8431;52.458;9.998;2024-01-30T01:01:26;11.52;;;10.60;;
16634;SDS011;8431;52.458;9.998;2024-01-30T01:03:53;11.27;;;10.38;;
16634;SDS011;8431;52.458;9.998;2024-01-30T01:06:20;12.00;;;10.82;;
16634;SDS011;8431;52.458;9.998;2024-01-30T01:08:50;11.02;;;10.02;;
16634;SDS011;8431;52.458;9.998;2024-01-30T01:11:17;11.82;;;10.73;;
16634;SDS011;8431;52.458;9.998;2024-01-30T01:13:44;11.52;;;10.52;;
16634;SDS011;8431;52.458;9.998;2024-01-30T01:16:10;13.00;;;10.50;;
16634;SDS011;8431;52.458;9.998;2024-01-30T01:18:39;11.65;;;10.65;;
16634;SDS011;8431;52.458;9.998;2024-01-30T01:21:05;12.18;;;11.07;;
16634;SDS011;8431;52.458;9.998;2024-01-30T01:23:32;11.25;;;10.15;;
16634;SDS011;8431;52.458;9.998;2024-01-30T01:25:59;12.35;;;11.25;;
16634;SDS011;8431;52.458;9.998;2024-01-30T01:28:26;12.77;;;10.13;;
16634;SDS011;8431;52.458;9.998;2024-01-30T01:30:53;12.20;;;10.98;;
16634;SDS011;8431;52.458;9.998;2024-01-30T01:33:24;11.63;;;10.55;;
16634;SDS011;8431;52.458;9.998;2024-01-30T01:35:52;12.68;;;11.32;;
16634;SDS011;8431;52.458;9.998;2024-01-30T01:38:19;12.75;;;11.55;;
16634;SDS011;8431;52.458;9.998;2024-01-30T01:40:45;12.30;;;10.95;;
16634;SDS011;8431;52.458;9.998;2024-01-30T01:43:12;13.93;;;11.90;;
16634;SDS011;8431;52.458;9.998;2024-01-30T01:45:39;13.27;;;11.73;;
16634;SDS011;8431;52.458;9.998;2024-01-30T01:48:06;12.60;;;11.13;;
16634;SDS011;8431;52.458;9.998;2024-01-30T01:50:34;12.70;;;11.35;;
16634;SDS011;8431;52.458;9.998;2024-01-30T01:53:04;11.75;;;10.55;;
16634;SDS011;8431;52.458;9.998;2024-01-30T01:55:33;12.27;;;11.00;;
16634;SDS011;8431;52.458;9.998;2024-01-30T01:58:01;11.50;;;10.50;;
16634;SDS011;8431;52.458;9.998;2024-01-30T02:00:28;11.52;;;10.57;;
16634;SDS011;8431;52.458;9.998;2024-01-30T02:02:56;12.48;;;11.20;;
16634;SDS011;8431;52.458;9.998;2024-01-30T02:05:24;10.60;;;9.70;;
16634;SDS011;8431;52.458;9.998;2024-01-30T02:07:52;12.15;;;10.90;;
16634;SDS011;8431;52.458;9.998;2024-01-30T02:10:21;12.52;;;11.23;;
16634;SDS011;8431;52.458;9.998;2024-01-30T02:12:48;12.52;;;10.55;;
16634;SDS011;8431;52.458;9.998;2024-01-30T02:15:15;12.40;;;11.10;;
16634;SDS011;8431;52.458;9.998;2024-01-30T02:17:42;12.45;;;11.07;;
16634;SDS011;8431;52.458;9.998;2024-01-30T02:20:09;12.30;;;11.20;;
16634;SDS011;8431;52.458;9.998;2024-01-30T02:22:38;12.23;;;10.93;;
16634;SDS011;8431;52.458;9.998;2024-01-30T02:25:07;12.55;;;11.30;;
16634;SDS011;8431;52.458;9.998;2024-01-30T02:27:34;12.40;;;11.10;;
16634;SDS011;8431;52.458;9.998;2024-01-30T02:30:01;12.18;;;10.98;;
16634;SDS011;8431;52.458;9.998;2024-01-30T02:32:28;11.38;;;10.05;;
16634;SDS011;8431;52.458;9.998;2024-01-30T02:34:54;10.88;;;9.93;;
16634;SDS011;8431;52.458;9.998;2024-01-30T02:37:21;11.55;;;10.43;;
16634;SDS011;8431;52.458;9.998;2024-01-30T02:39:49;11.95;;;10.88;;
16634;SDS011;8431;52.458;9.998;2024-01-30T02:42:16;10.65;;;9.60;;
16634;SDS011;8431;52.458;9.998;2024-01-30T02:44:43;11.15;;;10.25;;
16634;SDS011;8431;52.458;9.998;2024-01-30T02:47:10;11.32;;;10.32;;
16634;SDS011;8431;52.458;9.998;2024-01-30T02:49:37;11.27;;;10.38;;
16634;SDS011;8431;52.458;9.998;2024-01-30T02:52:03;11.68;;;10.57;;
16634;SDS011;8431;52.458;9.998;2024-01-30T02:54:30;12.52;;;11.45;;
16634;SDS011;8431;52.458;9.998;2024-01-30T02:56:59;12.15;;;11.13;;
16634;SDS011;8431;52.458;9.998;2024-01-30T02:59:25;11.45;;;10.50;;
16634;SDS011;8431;52.458;9.998;2024-01-30T03:01:52;11.98;;;10.77;;
16634;SDS011;8431;52.458;9.998;2024-01-30T03:04:22;12.50;;;11.27;;
16634;SDS011;8431;52.458;9.998;2024-01-30T03:06:49;11.98;;;10.73;;
16634;SDS011;8431;52.458;9.998;2024-01-30T03:09:18;12.35;;;11.15;;
16634;SDS011;8431;52.458;9.998;2024-01-30T03:11:44;11.35;;;10.35;;
16634;SDS011;8431;52.458;9.998;2024-01-30T03:14:12;11.90;;;10.85;;
16634;SDS011;8431;52.458;9.998;2024-01-30T03:16:39;11.18;;;10.18;;
16634;SDS011;8431;52.458;9.998;2024-01-30T03:19:09;12.38;;;11.20;;
16634;SDS011;8431;52.458;9.998;2024-01-30T03:21:36;11.02;;;10.13;;
16634;SDS011;8431;52.458;9.998;2024-01-30T03:24:03;16.40;;;10.13;;
16634;SDS011;8431;52.458;9.998;2024-01-30T03:26:30;11.93;;;10.57;;
16634;SDS011;8431;52.458;9.998;2024-01-30T03:28:57;12.02;;;10.93;;
16634;SDS011;8431;52.458;9.998;2024-01-30T03:31:25;14.27;;;11.20;;
16634;SDS011;8431;52.458;9.998;2024-01-30T03:33:52;12.32;;;11.13;;
16634;SDS011;8431;52.458;9.998;2024-01-30T03:36:18;13.02;;;11.63;;
16634;SDS011;8431;52.458;9.998;2024-01-30T03:38:46;11.55;;;10.38;;
16634;SDS011;8431;52.458;9.998;2024-01-30T03:41:12;11.93;;;10.70;;
16634;SDS011;8431;52.458;9.998;2024-01-30T03:43:38;12.00;;;10.95;;
16634;SDS011;8431;52.458;9.998;2024-01-30T03:46:05;16.65;;;12.07;;
16634;SDS011;8431;52.458;9.998;2024-01-30T03:48:33;11.70;;;10.70;;
16634;SDS011;8431;52.458;9.998;2024-01-30T03:51:00;12.00;;;10.95;;
16634;SDS011;8431;52.458;9.998;2024-01-30T03:53:27;12.50;;;11.35;;
16634;SDS011;8431;52.458;9.998;2024-01-30T03:55:54;11.52;;;10.23;;
16634;SDS011;8431;52.458;9.998;2024-01-30T03:58:20;12.45;;;11.23;;
16634;SDS011;8431;52.458;9.998;2024-01-30T04:00:48;11.65;;;10.55;;
16634;SDS011;8431;52.458;9.998;2024-01-30T04:03:15;12.73;;;11.52;;
16634;SDS011;8431;52.458;9.998;2024-01-30T04:05:43;11.90;;;10.80;;
16634;SDS011;8431;52.458;9.998;2024-01-30T04:08:11;12.85;;;11.65;;
16634;SDS011;8431;52.458;9.998;2024-01-30T04:10:37;12.40;;;11.38;;
16634;SDS011;8431;52.458;9.998;2024-01-30T04:13:04;13.25;;;11.95;;
16634;SDS011;8431;52.458;9.998;2024-01-30T04:15:31;13.10;;;11.80;;
16634;SDS011;8431;52.458;9.998;2024-01-30T04:17:58;12.43;;;11.32;;
16634;SDS011;8431;52.458;9.998;2024-01-30T04:20:25;12.00;;;10.77;;
16634;SDS011;8431;52.458;9.998;2024-01-30T04:22:53;11.65;;;10.65;;
16634;SDS011;8431;52.458;9.998;2024-01-30T04:25:20;14.10;;;11.55;;
16634;SDS011;8431;52.458;9.998;2024-01-30T04:27:47;12.75;;;11.65;;
16634;SDS011;8431;52.458;9.998;2024-01-30T04:30:14;12.98;;;11.77;;
16634;SDS011;8431;52.458;9.998;2024-01-30T04:32:41;12.68;;;11.43;;
16634;SDS011;8431;52.458;9.998;2024-01-30T04:35:08;11.88;;;10.82;;
16634;SDS011;8431;52.458;9.998;2024-01-30T04:37:36;12.43;;;11.07;;
16634;SDS011;8431;52.458;9.998;2024-01-30T04:40:04;13.10;;;11.85;;
16634;SDS011;8431;52.458;9.998;2024-01-30T04:42:33;12.80;;;11.60;;
16634;SDS011;8431;52.458;9.998;2024-01-30T04:45:00;12.32;;;11.23;;
16634;SDS011;8431;52.458;9.998;2024-01-30T04:47:27;13.02;;;11.70;;
16634;SDS011;8431;52.458;9.998;2024-01-30T04:49:54;11.48;;;10.50;;
16634;SDS011;8431;52.458;9.998;2024-01-30T04:52:21;12.43;;;11.32;;
16634;SDS011;8431;52.458;9.998;2024-01-30T04:54:48;11.80;;;10.70;;
16634;SDS011;8431;52.458;9.998;2024-01-30T04:57:16;11.80;;;10.65;;
16634;SDS011;8431;52.458;9.998;2024-01-30T04:59:43;12.30;;;11.02;;
16634;SDS011;8431;52.458;9.998;2024-01-30T05:02:10;12.30;;;11.25;;
16634;SDS011;8431;52.458;9.998;2024-01-30T05:04:36;12.02;;;11.07;;
16634;SDS011;8431;52.458;9.998;2024-01-30T05:07:07;12.32;;;11.00;;
16634;SDS011;8431;52.458;9.998;2024-01-30T05:09:33;11.95;;;10.13;;
16634;SDS011;8431;52.458;9.998;2024-01-30T05:12:00;11.45;;;10.25;;
16634;SDS011;8431;52.458;9.998;2024-01-30T05:14:28;11.98;;;10.88;;
16634;SDS011;8431;52.458;9.998;2024-01-30T05:16:55;12.52;;;11.40;;
16634;SDS011;8431;52.458;9.998;2024-01-30T05:19:22;12.25;;;11.15;;
16634;SDS011;8431;52.458;9.998;2024-01-30T05:21:49;12.25;;;11.15;;
16634;SDS011;8431;52.458;9.998;2024-01-30T05:24:16;11.10;;;10.10;;
16634;SDS011;8431;52.458;9.998;2024-01-30T05:26:43;10.95;;;9.95;;
16634;SDS011;8431;52.458;9.998;2024-01-30T05:29:10;11.23;;;10.02;;
16634;SDS011;8431;52.458;9.998;2024-01-30T05:31:40;10.43;;;9.63;;
16634;SDS011;8431;52.458;9.998;2024-01-30T05:34:08;11.07;;;10.13;;
16634;SDS011;8431;52.458;9.998;2024-01-30T05:36:35;10.82;;;9.93;;
16634;SDS011;8431;52.458;9.998;2024-01-30T05:39:05;11.10;;;9.93;;
16634;SDS011;8431;52.458;9.998;2024-01-30T05:41:32;11.70;;;9.48;;
16634;SDS011;8431;52.458;9.998;2024-01-30T05:43:59;10.55;;;9.63;;
16634;SDS011;8431;52.458;9.998;2024-01-30T05:46:26;11.45;;;10.35;;
16634;SDS011;8431;52.458;9.998;2024-01-30T05:48:57;11.38;;;10.27;;
16634;SDS011;8431;52.458;9.998;2024-01-30T05:51:24;10.25;;;9.25;;
16634;SDS011;8431;52.458;9.998;2024-01-30T05:53:50;11.05;;;9.77;;
16634;SDS011;8431;52.458;9.998;2024-01-30T05:56:17;11.75;;;10.65;;
16634;SDS011;8431;52.458;9.998;2024-01-30T05:58:44;11.23;;;10.07;;
16634;SDS011;8431;52.458;9.998;2024-01-30T06:01:11;11.55;;;10.48;;
16634;SDS011;8431;52.458;9.998;2024-01-30T06:03:38;11.55;;;10.55;;
16634;SDS011;8431;52.458;9.998;2024-01-30T06:06:07;11.73;;;9.80;;
16634;SDS011;8431;52.458;9.998;2024-01-30T06:08:33;13.32;;;10.25;;
16634;SDS011;8431;52.458;9.998;2024-01-30T06:11:00;10.02;;;9.13;;
16634;SDS011;8431;52.458;9.998;2024-01-30T06:13:27;11.32;;;10.15;;
16634;SDS011;8431;52.458;9.998;2024-01-30T06:15:56;11.25;;;10.18;;
16634;SDS011;8431;52.458;9.998;2024-01-30T06:18:23;10.77;;;9.70;;
16634;SDS011;8431;52.458;9.998;2024-01-30T06:20:52;11.60;;;10.50;;
16634;SDS011;8431;52.458;9.998;2024-01-30T06:23:20;11.27;;;10.23;;
16634;SDS011;8431;52.458;9.998;2024-01-30T06:25:47;12.52;;;11.32;;
16634;SDS011;8431;52.458;9.998;2024-01-30T06:28:13;11.10;;;10.05;;
16634;SDS011;8431;52.458;9.998;2024-01-30T06:30:40;11.63;;;10.43;;
16634;SDS011;8431;52.458;9.998;2024-01-30T06:33:07;11.60;;;10.50;;
16634;SDS011;8431;52.458;9.998;2024-01-30T06:35:34;11.93;;;10.77;;
16634;SDS011;8431;52.458;9.998;2024-01-30T06:38:04;13.05;;;11.75;;
16634;SDS011;8431;52.458;9.998;2024-01-30T06:40:33;12.05;;;10.93;;
16634;SDS011;8431;52.458;9.998;2024-01-30T06:43:00;12.15;;;10.32;;
16634;SDS011;8431;52.458;9.998;2024-01-30T06:45:26;12.18;;;10.75;;
16634;SDS011;8431;52.458;9.998;2024-01-30T06:47:53;11.13;;;10.13;;
16634;SDS011;8431;52.458;9.998;2024-01-30T06:50:20;12.15;;;10.80;;
16634;SDS011;8431;52.458;9.998;2024-01-30T06:52:47;13.23;;;10.57;;
16634;SDS011;8431;52.458;9.998;2024-01-30T06:55:14;12.07;;;10.95;;
16634;SDS011;8431;52.458;9.998;2024-01-30T06:57:50;13.20;;;11.07;;
16634;SDS011;8431;52.458;9.998;2024-01-30T07:00:17;13.10;;;11.80;;
16634;SDS011;8431;52.458;9.998;2024-01-30T07:02:45;12.57;;;11.45;;
16634;SDS011;8431;52.458;9.998;2024-01-30T07:05:12;12.50;;;11.07;;
16634;SDS011;8431;52.458;9.998;2024-01-30T07:07:39;12.07;;;10.73;;
16634;SDS011;8431;52.458;9.998;2024-01-30T07:10:06;12.70;;;11.40;;
16634;SDS011;8431;52.458;9.998;2024-01-30T07:12:34;12.63;;;11.38;;
16634;SDS011;8431;52.458;9.998;2024-01-30T07:15:17;13.27;;;12.07;;
16634;SDS011;8431;52.458;9.998;2024-01-30T07:17:45;11.82;;;10.48;;
16634;SDS011;8431;52.458;9.998;2024-01-30T07:20:12;16.38;;;11.15;;
16634;SDS011;8431;52.458;9.998;2024-01-30T07:22:39;12.18;;;10.77;;
16634;SDS011;8431;52.458;9.998;2024-01-30T07:25:06;14.30;;;11.50;;
16634;SDS011;8431;52.458;9.998;2024-01-30T07:27:35;14.60;;;11.60;;
16634;SDS011;8431;52.458;9.998;2024-01-30T07:30:02;11.93;;;10.38;;
16634;SDS011;8431;52.458;9.998;2024-01-30T07:32:31;11.65;;;10.45;;
16634;SDS011;8431;52.458;9.998;2024-01-30T07:34:57;11.95;;;10.88;;
16634;SDS011;8431;52.458;9.998;2024-01-30T07:37:24;12.25;;;10.93;;
16634;SDS011;8431;52.458;9.998;2024-01-30T07:39:51;12.23;;;11.10;;
16634;SDS011;8431;52.458;9.998;2024-01-30T07:42:18;12.57;;;11.32;;
16634;SDS011;8431;52.458;9.998;2024-01-30T07:44:44;13.20;;;11.57;;
16634;SDS011;8431;52.458;9.998;2024-01-30T07:47:11;12.95;;;11.65;;
16634;SDS011;8431;52.458;9.998;2024-01-30T07:49:40;14.13;;;11.40;;
16634;SDS011;8431;52.458;9.998;2024-01-30T07:52:06;13.65;;;11.65;;
16634;SDS011;8431;52.458;9.998;2024-01-30T07:54:33;15.88;;;11.57;;
16634;SDS011;8431;52.458;9.998;2024-01-30T07:57:00;13.65;;;10.93;;
16634;SDS011;8431;52.458;9.998;2024-01-30T07:59:27;12.45;;;11.35;;
16634;SDS011;8431;52.458;9.998;2024-01-30T08:02:00;11.68;;;10.30;;
16634;SDS011;8431;52.458;9.998;2024-01-30T08:04:27;12.35;;;10.95;;
16634;SDS011;8431;52.458;9.998;2024-01-30T08:06:55;10.57;;;9.63;;
16634;SDS011;8431;52.458;9.998;2024-01-30T08:09:21;11.27;;;10.18;;
16634;SDS011;8431;52.458;9.998;2024-01-30T08:11:48;11.40;;;10.30;;
16634;SDS011;8431;52.458;9.998;2024-01-30T08:14:15;14.45;;;9.73;;
16634;SDS011;8431;52.458;9.998;2024-01-30T08:16:42;12.02;;;10.80;;
16634;SDS011;8431;52.458;9.998;2024-01-30T08:19:11;11.45;;;10.23;;
16634;SDS011;8431;52.458;9.998;2024-01-30T08:21:38;11.32;;;9.82;;
16634;SDS011;8431;52.458;9.998;2024-01-30T08:24:07;10.70;;;9.65;;
16634;SDS011;8431;52.458;9.998;2024-01-30T08:26:34;11.73;;;10.13;;
16634;SDS011;8431;52.458;9.998;2024-01-30T08:29:02;10.13;;;9.23;;
16634;SDS011;8431;52.458;9.998;2024-01-30T08:31:29;10.75;;;9.73;;
16634;SDS011;8431;52.458;9.998;2024-01-30T08:33:55;10.57;;;9.27;;
16634;SDS011;8431;52.458;9.998;2024-01-30T08:36:22;10.65;;;9.63;;
16634;SDS011;8431;52.458;9.998;2024-01-30T08:38:49;10.30;;;9.25;;
16634;SDS011;8431;52.458;9.998;2024-01-30T08:41:17;10.65;;;9.05;;
16634;SDS011;8431;52.458;9.998;2024-01-30T08:43:44;10.18;;;9.00;;
16634;SDS011;8431;52.458;9.998;2024-01-30T08:46:11;10.10;;;8.90;;
16634;SDS011;8431;52.458;9.998;2024-01-30T08:48:38;9.82;;;8.82;;
16634;SDS011;8431;52.458;9.998;2024-01-30T08:51:05;11.70;;;9.68;;
16634;SDS011;8431;52.458;9.998;2024-01-30T08:53:33;11.48;;;9.38;;
16634;SDS011;8431;52.458;9.998;2024-01-30T08:56:01;10.93;;;9.25;;
16634;SDS011;8431;52.458;9.998;2024-01-30T08:58:30;10.45;;;9.63;;
16634;SDS011;8431;52.458;9.998;2024-01-30T09:00:56;10.73;;;8.90;;
16634;SDS011;8431;52.458;9.998;2024-01-30T09:03:23;12.95;;;9.98;;
16634;SDS011;8431;52.458;9.998;2024-01-30T09:05:50;10.80;;;9.70;;
16634;SDS011;8431;52.458;9.998;2024-01-30T09:08:17;12.65;;;9.38;;
16634;SDS011;8431;52.458;9.998;2024-01-30T09:10:44;10.40;;;9.40;;
16634;SDS011;8431;52.458;9.998;2024-01-30T09:13:10;10.85;;;9.63;;
16634;SDS011;8431;52.458;9.998;2024-01-30T09:15:39;10.35;;;9.35;;
16634;SDS011;8431;52.458;9.998;2024-01-30T09:18:06;13.48;;;9.25;;
16634;SDS011;8431;52.458;9.998;2024-01-30T09:20:33;10.63;;;9.68;;
16634;SDS011;8431;52.458;9.998;2024-01-30T09:22:59;10.52;;;9.55;;
16634;SDS011;8431;52.458;9.998;2024-01-30T09:25:26;9.93;;;8.93;;
16634;SDS011;8431;52.458;9.998;2024-01-30T09:27:53;12.18;;;10.18;;
16634;SDS011;8431;52.458;9.998;2024-01-30T09:30:20;11.52;;;9.70;;
16634;SDS011;8431;52.458;9.998;2024-01-30T09:32:48;10.73;;;9.55;;
16634;SDS011;8431;52.458;9.998;2024-01-30T09:35:15;10.43;;;9.63;;
16634;SDS011;8431;52.458;9.998;2024-01-30T09:37:41;10.85;;;9.90;;
16634;SDS011;8431;52.458;9.998;2024-01-30T09:40:08;11.02;;;9.80;;
16634;SDS011;8431;52.458;9.998;2024-01-30T09:42:36;11.57;;;10.45;;
16634;SDS011;8431;52.458;9.998;2024-01-30T09:45:03;10.00;;;9.13;;
16634;SDS011;8431;52.458;9.998;2024-01-30T09:47:31;10.07;;;9.07;;
16634;SDS011;8431;52.458;9.998;2024-01-30T09:50:00;9.82;;;8.88;;
16634;SDS011;8431;52.458;9.998;2024-01-30T09:52:31;11.13;;;9.40;;
16634;SDS011;8431;52.458;9.998;2024-01-30T09:54:59;9.70;;;8.88;;
16634;SDS011;8431;52.458;9.998;2024-01-30T09:57:26;10.10;;;9.30;;
16634;SDS011;8431;52.458;9.998;2024-01-30T09:59:53;9.82;;;8.18;;
16634;SDS011;8431;52.458;9.998;2024-01-30T10:02:20;10.38;;;8.82;;
16634;SDS011;8431;52.458;9.998;2024-01-30T10:04:47;10.35;;;9.45;;
16634;SDS011;8431;52.458;9.998;2024-01-30T10:07:16;9.32;;;8.52;;
16634;SDS011;8431;52.458;9.998;2024-01-30T10:09:43;10.05;;;8.95;;
16634;SDS011;8431;52.458;9.998;2024-01-30T10:12:10;10.25;;;8.98;;
16634;SDS011;8431;52.458;9.998;2024-01-30T10:14:37;10.45;;;9.15;;
16634;SDS011;8431;52.458;9.998;2024-01-30T10:17:04;9.98;;;9.07;;
16634;SDS011;8431;52.458;9.998;2024-01-30T10:19:31;9.77;;;8.77;;
16634;SDS011;8431;52.458;9.998;2024-01-30T10:21:59;9.23;;;8.38;;
16634;SDS011;8431;52.458;9.998;2024-01-30T10:24:27;9.13;;;8.23;;
16634;SDS011;8431;52.458;9.998;2024-01-30T10:26:55;10.57;;;9.52;;
16634;SDS011;8431;52.458;9.998;2024-01-30T10:29:22;9.60;;;8.77;;
16634;SDS011;8431;52.458;9.998;2024-01-30T10:31:57;9.82;;;8.88;;
16634;SDS011;8431;52.458;9.998;2024-01-30T10:34:25;10.30;;;9.40;;
16634;SDS011;8431;52.458;9.998;2024-01-30T10:36:55;10.88;;;9.85;;
16634;SDS011;8431;52.458;9.998;2024-01-30T10:39:29;9.32;;;8.45;;
16634;SDS011;8431;52.458;9.998;2024-01-30T10:41:59;10.63;;;9.82;;
16634;SDS011;8431;52.458;9.998;2024-01-30T10:44:33;11.18;;;10.07;;
16634;SDS011;8431;52.458;9.998;2024-01-30T10:47:06;11.38;;;9.88;;
16634;SDS011;8431;52.458;9.998;2024-01-30T10:49:37;10.10;;;9.30;;
16634;SDS011;8431;52.458;9.998;2024-01-30T10:52:05;10.85;;;9.95;;
16634;SDS011;8431;52.458;9.998;2024-01-30T10:54:35;10.68;;;9.65;;
16634;SDS011;8431;52.458;9.998;2024-01-30T10:57:03;10.13;;;9.25;;
16634;SDS011;8431;52.458;9.998;2024-01-30T10:59:31;9.73;;;8.57;;
16634;SDS011;8431;52.458;9.998;2024-01-30T11:01:59;10.50;;;9.60;;
16634;SDS011;8431;52.458;9.998;2024-01-30T11:04:26;9.50;;;8.77;;
16634;SDS011;8431;52.458;9.998;2024-01-30T11:06:53;9.50;;;8.75;;
16634;SDS011;8431;52.458;9.998;2024-01-30T11:09:20;9.63;;;8.75;;
16634;SDS011;8431;52.458;9.998;2024-01-30T11:11:52;10.05;;;9.15;;
16634;SDS011;8431;52.458;9.998;2024-01-30T11:14:24;9.52;;;8.70;;
16634;SDS011;8431;52.458;9.998;2024-01-30T11:16:52;10.27;;;9.27;;
16634;SDS011;8431;52.458;9.998;2024-01-30T11:19:24;10.07;;;9.07;;
16634;SDS011;8431;52.458;9.998;2024-01-30T11:21:52;9.73;;;8.73;;
16634;SDS011;8431;52.458;9.998;2024-01-30T11:24:21;9.20;;;8.40;;
16634;SDS011;8431;52.458;9.998;2024-01-30T11:26:49;10.05;;;9.18;;
16634;SDS011;8431;52.458;9.998;2024-01-30T11:29:20;9.70;;;8.90;;
16634;SDS011;8431;52.458;9.998;2024-01-30T11:31:53;10.30;;;9.18;;
16634;SDS011;8431;52.458;9.998;2024-01-30T11:34:20;9.90;;;9.13;;
16634;SDS011;8431;52.458;9.998;2024-01-30T11:36:48;10.18;;;9.20;;
16634;SDS011;8431;52.458;9.998;2024-01-30T11:39:20;12.63;;;9.45;;
16634;SDS011;8431;52.458;9.998;2024-01-30T11:41:47;9.65;;;8.80;;
16634;SDS011;8431;52.458;9.998;2024-01-30T11:44:17;11.10;;;9.60;;
16634;SDS011;8431;52.458;9.998;2024-01-30T11:46:46;9.95;;;9.00;;
16634;SDS011;8431;52.458;9.998;2024-01-30T11:49:14;9.35;;;8.60;;
16634;SDS011;8431;52.458;9.998;2024-01-30T11:51:41;9.57;;;8.77;;
16634;SDS011;8431;52.458;9.998;2024-01-30T11:54:08;9.93;;;8.93;;
16634;SDS011;8431;52.458;9.998;2024-01-30T11:56:36;9.40;;;8.70;;
16634;SDS011;8431;52.458;9.998;2024-01-30T11:59:03;9.02;;;8.20;;
16634;SDS011;8431;52.458;9.998;2024-01-30T12:01:32;9.02;;;8.32;;
16634;SDS011;8431;52.458;9.998;2024-01-30T12:04:01;9.98;;;8.77;;
16634;SDS011;8431;52.458;9.998;2024-01-30T12:06:28;9.77;;;9.05;;
16634;SDS011;8431;52.458;9.998;2024-01-30T12:08:58;11.48;;;9.18;;
16634;SDS011;8431;52.458;9.998;2024-01-30T12:11:25;10.40;;;9.50;;
16634;SDS011;8431;52.458;9.998;2024-01-30T12:13:52;9.77;;;8.77;;
16634;SDS011;8431;52.458;9.998;2024-01-30T12:16:20;9.57;;;8.77;;
16634;SDS011;8431;52.458;9.998;2024-01-30T12:18:46;10.05;;;9.30;;
16634;SDS011;8431;52.458;9.998;2024-01-30T12:21:17;10.00;;;9.20;;
16634;SDS011;8431;52.458;9.998;2024-01-30T12:23:44;10.18;;;9.30;;
16634;SDS011;8431;52.458;9.998;2024-01-30T12:26:14;10.55;;;9.68;;
16634;SDS011;8431;52.458;9.998;2024-01-30T12:28:47;10.52;;;9.60;;
16634;SDS011;8431;52.458;9.998;2024-01-30T12:31:15;9.35;;;8.65;;
16634;SDS011;8431;52.458;9.998;2024-01-30T12:33:42;9.57;;;8.77;;
16634;SDS011;8431;52.458;9.998;2024-01-30T12:36:09;10.13;;;9.23;;
16634;SDS011;8431;52.458;9.998;2024-01-30T12:38:38;9.82;;;9.02;;
16634;SDS011;8431;52.458;9.998;2024-01-30T12:41:07;9.57;;;8.63;;
16634;SDS011;8431;52.458;9.998;2024-01-30T12:43:35;11.07;;;9.98;;
16634;SDS011;8431;52.458;9.998;2024-01-30T12:46:03;10.82;;;9.93;;
16634;SDS011;8431;52.458;9.998;2024-01-30T12:48:30;10.35;;;9.35;;
16634;SDS011;8431;52.458;9.998;2024-01-30T12:50:57;10.60;;;9.68;;
16634;SDS011;8431;52.458;9.998;2024-01-30T12:53:24;10.00;;;9.20;;
16634;SDS011;8431;52.458;9.998;2024-01-30T12:55:52;10.95;;;9.95;;
16634;SDS011;8431;52.458;9.998;2024-01-30T12:58:34;13.13;;;9.40;;
16634;SDS011;8431;52.458;9.998;2024-01-30T13:01:02;9.15;;;8.55;;
16634;SDS011;8431;52.458;9.998;2024-01-30T13:03:29;10.38;;;9.40;;
16634;SDS011;8431;52.458;9.998;2024-01-30T13:05:56;9.25;;;8.35;;
16634;SDS011;8431;52.458;9.998;2024-01-30T13:08:23;8.73;;;7.95;;
16634;SDS011;8431;52.458;9.998;2024-01-30T13:10:50;10.48;;;8.63;;
16634;SDS011;8431;52.458;9.998;2024-01-30T13:13:19;11.48;;;9.52;;
16634;SDS011;8431;52.458;9.998;2024-01-30T13:15:46;9.85;;;8.95;;
16634;SDS011;8431;52.458;9.998;2024-01-30T13:18:13;9.88;;;8.98;;
16634;SDS011;8431;52.458;9.998;2024-01-30T13:20:40;9.93;;;9.07;;
16634;SDS011;8431;52.458;9.998;2024-01-30T13:23:07;10.50;;;9.60;;
16634;SDS011;8431;52.458;9.998;2024-01-30T13:25:34;10.15;;;9.35;;
16634;SDS011;8431;52.458;9.998;2024-01-30T13:28:02;12.10;;;10.18;;
16634;SDS011;8431;52.458;9.998;2024-01-30T13:30:29;12.50;;;10.43;;
16634;SDS011;8431;52.458;9.998;2024-01-30T13:32:56;10.20;;;9.30;;
16634;SDS011;8431;52.458;9.998;2024-01-30T13:35:23;10.20;;;9.35;;
16634;SDS011;8431;52.458;9.998;2024-01-30T13:37:50;10.50;;;9.45;;
16634;SDS011;8431;52.458;9.998;2024-01-30T13:40:17;9.60;;;8.77;;
16634;SDS011;8431;52.458;9.998;2024-01-30T13:42:43;10.60;;;9.63;;
16634;SDS011;8431;52.458;9.998;2024-01-30T13:45:12;10.27;;;9.38;;
16634;SDS011;8431;52.458;9.998;2024-01-30T13:47:40;11.02;;;10.05;;
16634;SDS011;8431;52.458;9.998;2024-01-30T13:50:07;11.27;;;10.18;;
16634;SDS011;8431;52.458;9.998;2024-01-30T13:52:35;8.88;;;8.10;;
16634;SDS011;8431;52.458;9.998;2024-01-30T13:55:02;10.43;;;9.63;;
16634;SDS011;8431;52.458;9.998;2024-01-30T13:57:29;10.15;;;9.23;;
16634;SDS011;8431;52.458;9.998;2024-01-30T14:00:00;10.98;;;10.05;;
16634;SDS011;8431;52.458;9.998;2024-01-30T14:02:39;9.60;;;8.70;;
16634;SDS011;8431;52.458;9.998;2024-01-30T14:05:06;9.98;;;8.98;;
16634;SDS011;8431;52.458;9.998;2024-01-30T14:07:33;10.82;;;9.15;;
16634;SDS011;8431;52.458;9.998;2024-01-30T14:10:01;10.02;;;9.02;;
16634;SDS011;8431;52.458;9.998;2024-01-30T14:12:28;9.45;;;8.55;;
16634;SDS011;8431;52.458;9.998;2024-01-30T14:14:55;9.68;;;8.75;;
16634;SDS011;8431;52.458;9.998;2024-01-30T14:17:22;9.68;;;8.88;;
16634;SDS011;8431;52.458;9.998;2024-01-30T14:19:50;9.95;;;8.95;;
16634;SDS011;8431;52.458;9.998;2024-01-30T14:22:17;9.65;;;8.48;;
16634;SDS011;8431;52.458;9.998;2024-01-30T14:24:44;10.30;;;9.32;;
16634;SDS011;8431;52.458;9.998;2024-01-30T14:27:11;10.35;;;9.35;;
16634;SDS011;8431;52.458;9.998;2024-01-30T14:29:38;10.45;;;9.45;;
16634;SDS011;8431;52.458;9.998;2024-01-30T14:32:06;10.15;;;9.02;;
16634;SDS011;8431;52.458;9.998;2024-01-30T14:34:33;10.48;;;9.57;;
16634;SDS011;8431;52.458;9.998;2024-01-30T14:37:02;9.25;;;8.50;;
16634;SDS011;8431;52.458;9.998;2024-01-30T14:39:28;9.57;;;8.88;;
16634;SDS011;8431;52.458;9.998;2024-01-30T14:41:55;10.50;;;9.57;;
16634;SDS011;8431;52.458;9.998;2024-01-30T14:44:22;10.15;;;9.30;;